sensor_id;sensor_type;location;lat;lon;timestamp;temperature;humidity
64705;DHT22;51131;52.298;13.686;2023-07-20T00:02:03;21.40;77.70
64705;DHT22;51131;52.298;13.686;2023-07-20T00:04:32;21.40;77.70
64705;DHT22;51131;52.298;13.686;2023-07-20T00:06:59;21.40;77.70
64705;DHT22;51131;52.298;13.686;2023-07-20T00:09:29;21.40;77.60
64705;DHT22;51131;52.298;13.686;2023-07-20T00:11:55;21.40;77.60
64705;DHT22;51131;52.298;13.686;2023-07-20T00:14:22;22.10;78.30
64705;DHT22;51131;52.298;13.686;2023-07-20T00:16:52;21.40;77.70
64705;DHT22;51131;52.298;13.686;2023-07-20T00:19:25;21.40;77.60
64705;DHT22;51131;52.298;13.686;2023-07-20T00:21:53;21.40;77.70
64705;DHT22;51131;52.298;13.686;2023-07-20T00:24:21;21.50;77.90
64705;DHT22;51131;52.298;13.686;2023-07-20T00:26:48;21.40;77.90
64705;DHT22;51131;52.298;13.686;2023-07-20T00:29:15;21.40;77.60
64705;DHT22;51131;52.298;13.686;2023-07-20T00:31:41;21.50;77.80
64705;DHT22;51131;52.298;13.686;2023-07-20T00:34:10;21.40;77.20
64705;DHT22;51131;52.298;13.686;2023-07-20T00:36:37;21.40;77.00
64705;DHT22;51131;52.298;13.686;2023-07-20T00:39:04;22.60;77.90
64705;DHT22;51131;52.298;13.686;2023-07-20T00:41:31;21.80;77.30
64705;DHT22;51131;52.298;13.686;2023-07-20T00:43:59;21.70;77.20
64705;DHT22;51131;52.298;13.686;2023-07-20T00:46:25;21.70;77.00
64705;DHT22;51131;52.298;13.686;2023-07-20T00:48:53;22.70;77.80
64705;DHT22;51131;52.298;13.686;2023-07-20T00:51:20;21.90;76.80
64705;DHT22;51131;52.298;13.686;2023-07-20T00:53:48;21.90;76.50
64705;DHT22;51131;52.298;13.686;2023-07-20T00:56:15;22.10;76.50
64705;DHT22;51131;52.298;13.686;2023-07-20T00:58:42;22.00;76.30
64705;DHT22;51131;52.298;13.686;2023-07-20T01:01:09;22.40;76.40
64705;DHT22;51131;52.298;13.686;2023-07-20T01:03:36;22.00;75.90
64705;DHT22;51131;52.298;13.686;2023-07-20T01:06:11;22.70;76.40
64705;DHT22;51131;52.298;13.686;2023-07-20T01:11:21;22.10;75.80
64705;DHT22;51131;52.298;13.686;2023-07-20T01:13:50;22.10;75.70
64705;DHT22;51131;52.298;13.686;2023-07-20T01:16:16;22.60;76.20
64705;DHT22;51131;52.298;13.686;2023-07-20T01:18:44;22.70;76.20
64705;DHT22;51131;52.298;13.686;2023-07-20T01:21:12;22.30;75.70
64705;DHT22;51131;52.298;13.686;2023-07-20T01:28:57;22.10;75.50
64705;DHT22;51131;52.298;13.686;2023-07-20T01:31:33;22.10;75.50
64705;DHT22;51131;52.298;13.686;2023-07-20T01:34:01;22.10;75.50
64705;DHT22;51131;52.298;13.686;2023-07-20T01:36:30;22.60;76.10
64705;DHT22;51131;52.298;13.686;2023-07-20T01:38:57;22.10;75.60
64705;DHT22;51131;52.298;13.686;2023-07-20T01:41:24;22.10;75.60
64705;DHT22;51131;52.298;13.686;2023-07-20T01:43:50;22.10;75.60
64705;DHT22;51131;52.298;13.686;2023-07-20T01:46:17;22.10;75.60
64705;DHT22;51131;52.298;13.686;2023-07-20T01:48:44;22.10;75.60
64705;DHT22;51131;52.298;13.686;2023-07-20T01:51:11;22.00;75.60
64705;DHT22;51131;52.298;13.686;2023-07-20T01:53:38;22.10;75.80
64705;DHT22;51131;52.298;13.686;2023-07-20T01:56:05;22.00;75.60
64705;DHT22;51131;52.298;13.686;2023-07-20T01:58:31;22.10;75.80
64705;DHT22;51131;52.298;13.686;2023-07-20T02:00:58;21.90;75.60
64705;DHT22;51131;52.298;13.686;2023-07-20T02:03:25;22.00;75.70
64705;DHT22;51131;52.298;13.686;2023-07-20T02:05:53;22.60;76.30
64705;DHT22;51131;52.298;13.686;2023-07-20T02:08:19;22.50;76.20
64705;DHT22;51131;52.298;13.686;2023-07-20T02:10:47;22.00;75.80
64705;DHT22;51131;52.298;13.686;2023-07-20T02:13:13;22.70;76.50
64705;DHT22;51131;52.298;13.686;2023-07-20T02:15:41;22.00;75.80
64705;DHT22;51131;52.298;13.686;2023-07-20T02:18:09;22.20;76.10
64705;DHT22;51131;52.298;13.686;2023-07-20T02:20:36;22.60;76.60
64705;DHT22;51131;52.298;13.686;2023-07-20T02:23:02;22.10;76.00
64705;DHT22;51131;52.298;13.686;2023-07-20T02:25:29;22.60;76.50
64705;DHT22;51131;52.298;13.686;2023-07-20T02:27:56;22.00;75.90
64705;DHT22;51131;52.298;13.686;2023-07-20T02:30:22;22.00;75.90
64705;DHT22;51131;52.298;13.686;2023-07-20T02:32:49;21.90;75.90
64705;DHT22;51131;52.298;13.686;2023-07-20T02:35:16;21.90;75.90
64705;DHT22;51131;52.298;13.686;2023-07-20T02:37:43;22.00;76.00
64705;DHT22;51131;52.298;13.686;2023-07-20T02:40:10;21.90;75.90
64705;DHT22;51131;52.298;13.686;2023-07-20T02:42:37;21.90;75.90
64705;DHT22;51131;52.298;13.686;2023-07-20T02:45:04;22.20;76.20
64705;DHT22;51131;52.298;13.686;2023-07-20T02:47:31;21.90;76.00
64705;DHT22;51131;52.298;13.686;2023-07-20T02:49:58;21.90;76.00
64705;DHT22;51131;52.298;13.686;2023-07-20T02:52:25;21.90;75.90
64705;DHT22;51131;52.298;13.686;2023-07-20T02:54:51;21.90;75.90
64705;DHT22;51131;52.298;13.686;2023-07-20T02:57:18;21.90;76.00
64705;DHT22;51131;52.298;13.686;2023-07-20T02:59:45;21.90;75.90
64705;DHT22;51131;52.298;13.686;2023-07-20T03:02:11;22.00;76.00
64705;DHT22;51131;52.298;13.686;2023-07-20T03:04:38;22.30;76.30
64705;DHT22;51131;52.298;13.686;2023-07-20T03:07:05;21.90;75.90
64705;DHT22;51131;52.298;13.686;2023-07-20T03:09:31;21.90;75.90
64705;DHT22;51131;52.298;13.686;2023-07-20T03:11:58;21.90;76.00
64705;DHT22;51131;52.298;13.686;2023-07-20T03:14:25;21.80;75.80
64705;DHT22;51131;52.298;13.686;2023-07-20T03:16:51;21.80;75.90
64705;DHT22;51131;52.298;13.686;2023-07-20T03:19:18;21.80;75.90
64705;DHT22;51131;52.298;13.686;2023-07-20T03:21:45;21.90;76.00
64705;DHT22;51131;52.298;13.686;2023-07-20T03:24:11;22.00;76.20
64705;DHT22;51131;52.298;13.686;2023-07-20T03:26:38;21.80;76.00
64705;DHT22;51131;52.298;13.686;2023-07-20T03:29:05;22.10;77.00
64705;DHT22;51131;52.298;13.686;2023-07-20T03:31:33;21.80;76.00
64705;DHT22;51131;52.298;13.686;2023-07-20T03:33:59;21.80;76.10
64705;DHT22;51131;52.298;13.686;2023-07-20T03:36:26;21.80;76.20
64705;DHT22;51131;52.298;13.686;2023-07-20T03:38:53;21.80;76.20
64705;DHT22;51131;52.298;13.686;2023-07-20T03:41:19;21.80;76.10
64705;DHT22;51131;52.298;13.686;2023-07-20T03:43:48;21.80;76.20
64705;DHT22;51131;52.298;13.686;2023-07-20T03:46:15;21.80;76.10
64705;DHT22;51131;52.298;13.686;2023-07-20T03:48:42;21.80;76.00
64705;DHT22;51131;52.298;13.686;2023-07-20T03:51:08;21.80;76.10
64705;DHT22;51131;52.298;13.686;2023-07-20T03:53:35;21.80;76.10
64705;DHT22;51131;52.298;13.686;2023-07-20T03:56:02;21.80;76.00
64705;DHT22;51131;52.298;13.686;2023-07-20T03:58:29;21.70;76.00
64705;DHT22;51131;52.298;13.686;2023-07-20T04:00:58;21.80;76.20
64705;DHT22;51131;52.298;13.686;2023-07-20T04:03:25;21.80;76.30
64705;DHT22;51131;52.298;13.686;2023-07-20T04:05:53;21.70;76.10
64705;DHT22;51131;52.298;13.686;2023-07-20T04:08:22;21.80;76.30
64705;DHT22;51131;52.298;13.686;2023-07-20T04:10:49;21.70;76.10
64705;DHT22;51131;52.298;13.686;2023-07-20T04:13:16;21.90;76.30
64705;DHT22;51131;52.298;13.686;2023-07-20T04:15:43;21.90;76.40
64705;DHT22;51131;52.298;13.686;2023-07-20T04:18:09;22.60;77.00
64705;DHT22;51131;52.298;13.686;2023-07-20T04:20:36;21.70;76.30
64705;DHT22;51131;52.298;13.686;2023-07-20T04:23:02;21.70;76.30
64705;DHT22;51131;52.298;13.686;2023-07-20T04:25:29;21.80;76.30
64705;DHT22;51131;52.298;13.686;2023-07-20T04:28:06;21.70;76.30
64705;DHT22;51131;52.298;13.686;2023-07-20T04:30:37;21.70;76.20
64705;DHT22;51131;52.298;13.686;2023-07-20T04:33:03;21.80;76.20
64705;DHT22;51131;52.298;13.686;2023-07-20T04:35:47;21.90;76.40
64705;DHT22;51131;52.298;13.686;2023-07-20T04:38:14;21.70;76.10
64705;DHT22;51131;52.298;13.686;2023-07-20T04:40:44;22.00;76.40
64705;DHT22;51131;52.298;13.686;2023-07-20T04:43:11;21.70;76.10
64705;DHT22;51131;52.298;13.686;2023-07-20T04:45:38;22.40;76.80
64705;DHT22;51131;52.298;13.686;2023-07-20T04:48:06;21.70;76.00
64705;DHT22;51131;52.298;13.686;2023-07-20T04:50:33;21.70;76.30
64705;DHT22;51131;52.298;13.686;2023-07-20T04:53:00;21.70;76.20
64705;DHT22;51131;52.298;13.686;2023-07-20T04:55:28;21.80;76.40
64705;DHT22;51131;52.298;13.686;2023-07-20T04:57:55;21.70;76.30
64705;DHT22;51131;52.298;13.686;2023-07-20T05:00:22;21.70;76.30
64705;DHT22;51131;52.298;13.686;2023-07-20T05:02:48;21.70;76.40
64705;DHT22;51131;52.298;13.686;2023-07-20T05:05:15;21.70;76.40
64705;DHT22;51131;52.298;13.686;2023-07-20T05:07:42;21.70;76.30
64705;DHT22;51131;52.298;13.686;2023-07-20T05:10:08;21.70;76.40
64705;DHT22;51131;52.298;13.686;2023-07-20T05:12:35;21.70;76.40
64705;DHT22;51131;52.298;13.686;2023-07-20T05:15:02;21.70;76.30
64705;DHT22;51131;52.298;13.686;2023-07-20T05:17:29;21.70;76.40
64705;DHT22;51131;52.298;13.686;2023-07-20T05:19:56;21.70;76.20
64705;DHT22;51131;52.298;13.686;2023-07-20T05:22:23;21.80;76.50
64705;DHT22;51131;52.298;13.686;2023-07-20T05:24:51;21.70;76.40
64705;DHT22;51131;52.298;13.686;2023-07-20T05:27:17;21.90;76.60
64705;DHT22;51131;52.298;13.686;2023-07-20T05:29:44;21.70;76.40
64705;DHT22;51131;52.298;13.686;2023-07-20T05:32:11;22.10;76.60
64705;DHT22;51131;52.298;13.686;2023-07-20T05:34:39;22.60;77.30
64705;DHT22;51131;52.298;13.686;2023-07-20T05:37:06;21.70;76.50
64705;DHT22;51131;52.298;13.686;2023-07-20T05:39:32;21.80;76.50
64705;DHT22;51131;52.298;13.686;2023-07-20T05:41:59;21.80;76.50
64705;DHT22;51131;52.298;13.686;2023-07-20T05:44:26;21.70;76.50
64705;DHT22;51131;52.298;13.686;2023-07-20T05:46:53;21.70;76.40
64705;DHT22;51131;52.298;13.686;2023-07-20T05:49:24;22.10;76.80
64705;DHT22;51131;52.298;13.686;2023-07-20T05:51:50;21.60;76.50
64705;DHT22;51131;52.298;13.686;2023-07-20T05:54:18;21.70;76.40
64705;DHT22;51131;52.298;13.686;2023-07-20T05:56:45;22.20;77.60
64705;DHT22;51131;52.298;13.686;2023-07-20T05:59:13;21.70;76.70
64705;DHT22;51131;52.298;13.686;2023-07-20T06:01:39;22.30;77.20
64705;DHT22;51131;52.298;13.686;2023-07-20T06:04:06;21.70;76.60
64705;DHT22;51131;52.298;13.686;2023-07-20T06:06:33;21.70;76.30
64705;DHT22;51131;52.298;13.686;2023-07-20T06:09:00;21.90;76.90
64705;DHT22;51131;52.298;13.686;2023-07-20T06:11:30;21.70;76.60
64705;DHT22;51131;52.298;13.686;2023-07-20T06:13:57;21.60;76.20
64705;DHT22;51131;52.298;13.686;2023-07-20T06:16:23;22.10;77.20
64705;DHT22;51131;52.298;13.686;2023-07-20T06:18:51;21.90;76.70
64705;DHT22;51131;52.298;13.686;2023-07-20T06:21:17;21.80;76.70
64705;DHT22;51131;52.298;13.686;2023-07-20T06:23:44;21.70;76.60
64705;DHT22;51131;52.298;13.686;2023-07-20T06:26:11;22.20;77.00
64705;DHT22;51131;52.298;13.686;2023-07-20T06:28:37;21.70;76.80
64705;DHT22;51131;52.298;13.686;2023-07-20T06:31:04;21.70;76.60
64705;DHT22;51131;52.298;13.686;2023-07-20T06:33:31;22.10;77.10
64705;DHT22;51131;52.298;13.686;2023-07-20T06:35:57;21.70;76.70
64705;DHT22;51131;52.298;13.686;2023-07-20T06:38:24;21.90;76.80
64705;DHT22;51131;52.298;13.686;2023-07-20T06:40:54;22.20;77.20
64705;DHT22;51131;52.298;13.686;2023-07-20T06:43:20;21.70;76.70
64705;DHT22;51131;52.298;13.686;2023-07-20T06:45:53;21.70;76.70
64705;DHT22;51131;52.298;13.686;2023-07-20T06:48:21;21.70;76.80
64705;DHT22;51131;52.298;13.686;2023-07-20T06:50:47;21.80;76.80
64705;DHT22;51131;52.298;13.686;2023-07-20T06:53:14;21.70;76.60
64705;DHT22;51131;52.298;13.686;2023-07-20T06:55:44;21.70;76.70
64705;DHT22;51131;52.298;13.686;2023-07-20T06:58:11;21.70;76.70
64705;DHT22;51131;52.298;13.686;2023-07-20T07:00:38;21.70;76.60
64705;DHT22;51131;52.298;13.686;2023-07-20T07:03:04;21.60;76.60
64705;DHT22;51131;52.298;13.686;2023-07-20T07:05:31;21.70;76.60
64705;DHT22;51131;52.298;13.686;2023-07-20T07:08:01;21.70;76.60
64705;DHT22;51131;52.298;13.686;2023-07-20T07:10:27;21.60;76.60
64705;DHT22;51131;52.298;13.686;2023-07-20T07:12:54;21.70;76.60
64705;DHT22;51131;52.298;13.686;2023-07-20T07:15:20;21.60;76.60
64705;DHT22;51131;52.298;13.686;2023-07-20T07:17:48;21.70;76.50
64705;DHT22;51131;52.298;13.686;2023-07-20T07:20:14;21.70;76.80
64705;DHT22;51131;52.298;13.686;2023-07-20T07:22:44;21.80;76.80
64705;DHT22;51131;52.298;13.686;2023-07-20T07:25:13;22.20;77.30
64705;DHT22;51131;52.298;13.686;2023-07-20T07:27:40;21.70;76.70
64705;DHT22;51131;52.298;13.686;2023-07-20T07:30:07;21.70;76.70
64705;DHT22;51131;52.298;13.686;2023-07-20T07:32:33;21.70;76.70
64705;DHT22;51131;52.298;13.686;2023-07-20T07:35:00;21.70;77.40
64705;DHT22;51131;52.298;13.686;2023-07-20T07:37:27;21.70;76.70
64705;DHT22;51131;52.298;13.686;2023-07-20T07:39:54;21.70;76.80
64705;DHT22;51131;52.298;13.686;2023-07-20T07:42:20;21.80;76.80
64705;DHT22;51131;52.298;13.686;2023-07-20T07:44:50;21.70;76.90
64705;DHT22;51131;52.298;13.686;2023-07-20T07:47:17;21.60;76.70
64705;DHT22;51131;52.298;13.686;2023-07-20T07:49:43;21.60;76.70
64705;DHT22;51131;52.298;13.686;2023-07-20T07:52:12;21.60;76.80
64705;DHT22;51131;52.298;13.686;2023-07-20T07:54:40;21.60;76.60
64705;DHT22;51131;52.298;13.686;2023-07-20T07:57:07;21.60;76.70
64705;DHT22;51131;52.298;13.686;2023-07-20T07:59:34;21.60;76.60
64705;DHT22;51131;52.298;13.686;2023-07-20T08:02:04;21.60;76.60
64705;DHT22;51131;52.298;13.686;2023-07-20T08:04:31;21.50;76.60
64705;DHT22;51131;52.298;13.686;2023-07-20T08:06:58;21.60;76.70
64705;DHT22;51131;52.298;13.686;2023-07-20T08:09:25;21.60;76.70
64705;DHT22;51131;52.298;13.686;2023-07-20T08:11:52;21.60;76.60
64705;DHT22;51131;52.298;13.686;2023-07-20T08:14:19;21.60;76.50
64705;DHT22;51131;52.298;13.686;2023-07-20T08:16:46;21.60;76.50
64705;DHT22;51131;52.298;13.686;2023-07-20T08:19:14;21.60;76.50
64705;DHT22;51131;52.298;13.686;2023-07-20T08:21:40;21.90;76.80
64705;DHT22;51131;52.298;13.686;2023-07-20T08:24:07;21.70;76.70
64705;DHT22;51131;52.298;13.686;2023-07-20T08:26:34;21.60;76.70
64705;DHT22;51131;52.298;13.686;2023-07-20T08:29:00;21.60;76.70
64705;DHT22;51131;52.298;13.686;2023-07-20T08:31:27;21.60;76.70
64705;DHT22;51131;52.298;13.686;2023-07-20T08:33:54;21.90;76.90
64705;DHT22;51131;52.298;13.686;2023-07-20T08:36:23;21.60;76.70
64705;DHT22;51131;52.298;13.686;2023-07-20T08:38:50;21.60;76.60
64705;DHT22;51131;52.298;13.686;2023-07-20T08:41:18;21.60;76.60
64705;DHT22;51131;52.298;13.686;2023-07-20T08:43:45;21.60;76.60
64705;DHT22;51131;52.298;13.686;2023-07-20T08:46:13;21.60;76.50
64705;DHT22;51131;52.298;13.686;2023-07-20T08:48:41;21.60;76.60
64705;DHT22;51131;52.298;13.686;2023-07-20T08:51:08;22.20;77.10
64705;DHT22;51131;52.298;13.686;2023-07-20T08:53:36;21.70;76.70
64705;DHT22;51131;52.298;13.686;2023-07-20T08:56:03;21.60;76.70
64705;DHT22;51131;52.298;13.686;2023-07-20T08:58:30;21.60;76.60
64705;DHT22;51131;52.298;13.686;2023-07-20T09:00:57;21.60;76.60
64705;DHT22;51131;52.298;13.686;2023-07-20T09:03:26;21.80;76.50
64705;DHT22;51131;52.298;13.686;2023-07-20T09:05:52;21.70;76.10
64705;DHT22;51131;52.298;13.686;2023-07-20T09:08:20;21.80;76.50
64705;DHT22;51131;52.298;13.686;2023-07-20T09:10:46;21.70;76.20
64705;DHT22;51131;52.298;13.686;2023-07-20T09:13:16;21.60;75.90
64705;DHT22;51131;52.298;13.686;2023-07-20T09:15:47;21.60;75.80
64705;DHT22;51131;52.298;13.686;2023-07-20T09:18:23;21.60;76.20
64705;DHT22;51131;52.298;13.686;2023-07-20T09:20:49;21.60;76.10
64705;DHT22;51131;52.298;13.686;2023-07-20T09:23:16;21.70;76.20
64705;DHT22;51131;52.298;13.686;2023-07-20T09:25:46;21.60;76.20
64705;DHT22;51131;52.298;13.686;2023-07-20T09:28:17;21.70;76.30
64705;DHT22;51131;52.298;13.686;2023-07-20T09:30:44;22.00;76.40
64705;DHT22;51131;52.298;13.686;2023-07-20T09:33:19;21.60;76.00
64705;DHT22;51131;52.298;13.686;2023-07-20T09:35:50;21.60;75.90
64705;DHT22;51131;52.298;13.686;2023-07-20T09:38:21;21.60;76.10
64705;DHT22;51131;52.298;13.686;2023-07-20T09:40:50;21.60;76.30
64705;DHT22;51131;52.298;13.686;2023-07-20T09:43:20;22.00;76.60
64705;DHT22;51131;52.298;13.686;2023-07-20T09:45:49;21.60;76.20
64705;DHT22;51131;52.298;13.686;2023-07-20T09:48:22;21.60;76.30
64705;DHT22;51131;52.298;13.686;2023-07-20T09:50:53;21.70;76.40
64705;DHT22;51131;52.298;13.686;2023-07-20T09:53:20;21.60;76.00
64705;DHT22;51131;52.298;13.686;2023-07-20T09:55:47;21.60;76.00
64705;DHT22;51131;52.298;13.686;2023-07-20T09:58:15;21.60;76.20
64705;DHT22;51131;52.298;13.686;2023-07-20T10:00:42;21.60;75.90
64705;DHT22;51131;52.298;13.686;2023-07-20T10:03:21;21.70;76.20
64705;DHT22;51131;52.298;13.686;2023-07-20T10:05:51;21.80;76.40
64705;DHT22;51131;52.298;13.686;2023-07-20T10:08:18;21.70;76.50
64705;DHT22;51131;52.298;13.686;2023-07-20T10:10:49;21.90;76.60
64705;DHT22;51131;52.298;13.686;2023-07-20T10:13:37;21.60;76.20
64705;DHT22;51131;52.298;13.686;2023-07-20T10:16:10;21.60;76.20
64705;DHT22;51131;52.298;13.686;2023-07-20T10:21:22;21.60;76.10
64705;DHT22;51131;52.298;13.686;2023-07-20T10:23:55;21.60;76.20
64705;DHT22;51131;52.298;13.686;2023-07-20T10:26:24;21.60;76.00
64705;DHT22;51131;52.298;13.686;2023-07-20T10:28:51;21.60;76.40
64705;DHT22;51131;52.298;13.686;2023-07-20T10:31:18;21.60;76.40
64705;DHT22;51131;52.298;13.686;2023-07-20T10:33:45;22.00;76.90
64705;DHT22;51131;52.298;13.686;2023-07-20T10:36:12;21.60;76.10
64705;DHT22;51131;52.298;13.686;2023-07-20T10:41:16;21.60;76.80
64705;DHT22;51131;52.298;13.686;2023-07-20T10:43:43;21.60;75.80
64705;DHT22;51131;52.298;13.686;2023-07-20T10:46:11;21.50;75.50
64705;DHT22;51131;52.298;13.686;2023-07-20T10:51:23;21.50;75.20
64705;DHT22;51131;52.298;13.686;2023-07-20T10:53:50;21.50;75.40
64705;DHT22;51131;52.298;13.686;2023-07-20T10:56:21;21.50;75.80
64705;DHT22;51131;52.298;13.686;2023-07-20T10:58:49;21.50;76.00
64705;DHT22;51131;52.298;13.686;2023-07-20T11:01:16;21.50;76.00
64705;DHT22;51131;52.298;13.686;2023-07-20T11:03:43;21.50;75.90
64705;DHT22;51131;52.298;13.686;2023-07-20T11:08:56;21.50;76.30
64705;DHT22;51131;52.298;13.686;2023-07-20T11:11:27;21.50;76.70
64705;DHT22;51131;52.298;13.686;2023-07-20T11:13:57;21.50;76.90
64705;DHT22;51131;52.298;13.686;2023-07-20T11:16:34;21.50;76.90
64705;DHT22;51131;52.298;13.686;2023-07-20T11:19:01;21.50;76.80
64705;DHT22;51131;52.298;13.686;2023-07-20T11:21:29;21.50;76.60
64705;DHT22;51131;52.298;13.686;2023-07-20T11:23:55;21.50;76.40
64705;DHT22;51131;52.298;13.686;2023-07-20T11:26:22;21.50;76.20
64705;DHT22;51131;52.298;13.686;2023-07-20T11:28:49;21.50;76.70
64705;DHT22;51131;52.298;13.686;2023-07-20T11:31:18;21.50;76.60
64705;DHT22;51131;52.298;13.686;2023-07-20T11:33:45;21.50;76.50
64705;DHT22;51131;52.298;13.686;2023-07-20T11:36:12;21.50;76.30
64705;DHT22;51131;52.298;13.686;2023-07-20T11:38:42;21.50;75.70
64705;DHT22;51131;52.298;13.686;2023-07-20T11:41:12;21.50;76.20
64705;DHT22;51131;52.298;13.686;2023-07-20T11:43:39;21.50;76.20
64705;DHT22;51131;52.298;13.686;2023-07-20T11:46:07;21.50;75.80
64705;DHT22;51131;52.298;13.686;2023-07-20T11:48:33;21.60;75.80
64705;DHT22;51131;52.298;13.686;2023-07-20T11:51:00;21.40;76.10
64705;DHT22;51131;52.298;13.686;2023-07-20T11:53:27;21.40;75.20
64705;DHT22;51131;52.298;13.686;2023-07-20T11:55:54;21.40;75.20
64705;DHT22;51131;52.298;13.686;2023-07-20T11:58:21;21.60;76.20
64705;DHT22;51131;52.298;13.686;2023-07-20T12:00:47;21.40;76.40
64705;DHT22;51131;52.298;13.686;2023-07-20T12:03:14;22.00;77.20
64705;DHT22;51131;52.298;13.686;2023-07-20T12:05:41;21.80;76.40
64705;DHT22;51131;52.298;13.686;2023-07-20T12:08:10;21.40;76.10
64705;DHT22;51131;52.298;13.686;2023-07-20T12:10:39;21.40;76.90
64705;DHT22;51131;52.298;13.686;2023-07-20T12:13:09;21.60;76.90
64705;DHT22;51131;52.298;13.686;2023-07-20T12:15:37;21.40;74.60
64705;DHT22;51131;52.298;13.686;2023-07-20T12:18:04;21.50;75.40
64705;DHT22;51131;52.298;13.686;2023-07-20T12:20:32;21.60;74.70
64705;DHT22;51131;52.298;13.686;2023-07-20T12:23:01;21.70;74.60
64705;DHT22;51131;52.298;13.686;2023-07-20T12:25:32;21.80;74.70
64705;DHT22;51131;52.298;13.686;2023-07-20T12:28:04;21.90;74.50
64705;DHT22;51131;52.298;13.686;2023-07-20T12:30:31;21.90;74.30
64705;DHT22;51131;52.298;13.686;2023-07-20T12:32:57;22.00;74.20
64705;DHT22;51131;52.298;13.686;2023-07-20T12:35:24;22.00;73.80
64705;DHT22;51131;52.298;13.686;2023-07-20T12:37:51;22.00;73.70
64705;DHT22;51131;52.298;13.686;2023-07-20T12:40:18;22.10;73.80
64705;DHT22;51131;52.298;13.686;2023-07-20T12:42:44;22.10;73.30
64705;DHT22;51131;52.298;13.686;2023-07-20T12:45:11;22.60;73.80
64705;DHT22;51131;52.298;13.686;2023-07-20T12:47:38;22.20;73.60
64705;DHT22;51131;52.298;13.686;2023-07-20T12:50:04;22.20;73.50
64705;DHT22;51131;52.298;13.686;2023-07-20T12:52:35;22.20;74.20
64705;DHT22;51131;52.298;13.686;2023-07-20T12:55:02;22.20;73.60
64705;DHT22;51131;52.298;13.686;2023-07-20T12:57:29;22.20;73.70
64705;DHT22;51131;52.298;13.686;2023-07-20T12:59:56;22.20;73.70
64705;DHT22;51131;52.298;13.686;2023-07-20T13:02:23;22.20;73.60
64705;DHT22;51131;52.298;13.686;2023-07-20T13:04:50;22.20;73.70
64705;DHT22;51131;52.298;13.686;2023-07-20T13:07:16;22.40;73.80
64705;DHT22;51131;52.298;13.686;2023-07-20T13:09:58;22.20;73.80
64705;DHT22;51131;52.298;13.686;2023-07-20T13:12:29;22.20;73.70
64705;DHT22;51131;52.298;13.686;2023-07-20T13:14:57;22.20;73.70
64705;DHT22;51131;52.298;13.686;2023-07-20T13:17:27;22.20;73.80
64705;DHT22;51131;52.298;13.686;2023-07-20T13:19:54;22.20;73.90
64705;DHT22;51131;52.298;13.686;2023-07-20T13:22:20;22.30;74.80
64705;DHT22;51131;52.298;13.686;2023-07-20T13:24:47;22.20;74.00
64705;DHT22;51131;52.298;13.686;2023-07-20T13:27:15;22.20;74.10
64705;DHT22;51131;52.298;13.686;2023-07-20T13:29:42;22.30;74.10
64705;DHT22;51131;52.298;13.686;2023-07-20T13:32:09;22.20;74.00
64705;DHT22;51131;52.298;13.686;2023-07-20T13:34:36;22.10;73.90
64705;DHT22;51131;52.298;13.686;2023-07-20T13:37:05;22.10;73.90
64705;DHT22;51131;52.298;13.686;2023-07-20T13:39:32;22.10;73.90
64705;DHT22;51131;52.298;13.686;2023-07-20T13:41:59;22.10;73.90
64705;DHT22;51131;52.298;13.686;2023-07-20T13:44:28;22.90;74.80
64705;DHT22;51131;52.298;13.686;2023-07-20T13:46:56;22.20;74.30
64705;DHT22;51131;52.298;13.686;2023-07-20T13:49:43;22.10;74.30
64705;DHT22;51131;52.298;13.686;2023-07-20T13:52:13;22.10;74.20
64705;DHT22;51131;52.298;13.686;2023-07-20T13:54:43;22.20;74.50
64705;DHT22;51131;52.298;13.686;2023-07-20T13:57:13;22.10;73.80
64705;DHT22;51131;52.298;13.686;2023-07-20T13:59:41;22.20;73.90
64705;DHT22;51131;52.298;13.686;2023-07-20T14:02:08;22.10;73.80
64705;DHT22;51131;52.298;13.686;2023-07-20T14:04:38;22.10;74.00
64705;DHT22;51131;52.298;13.686;2023-07-20T14:07:05;22.10;74.10
64705;DHT22;51131;52.298;13.686;2023-07-20T14:09:31;22.10;73.80
64705;DHT22;51131;52.298;13.686;2023-07-20T14:11:58;22.00;74.00
64705;DHT22;51131;52.298;13.686;2023-07-20T14:14:28;22.70;74.50
64705;DHT22;51131;52.298;13.686;2023-07-20T14:16:54;22.00;73.80
64705;DHT22;51131;52.298;13.686;2023-07-20T14:19:22;22.00;73.90
64705;DHT22;51131;52.298;13.686;2023-07-20T14:21:49;22.00;73.90
64705;DHT22;51131;52.298;13.686;2023-07-20T14:24:16;22.00;73.90
64705;DHT22;51131;52.298;13.686;2023-07-20T14:26:45;22.20;74.10
64705;DHT22;51131;52.298;13.686;2023-07-20T14:29:14;22.00;73.70
64705;DHT22;51131;52.298;13.686;2023-07-20T14:31:40;22.00;73.70
64705;DHT22;51131;52.298;13.686;2023-07-20T14:34:08;22.30;74.30
64705;DHT22;51131;52.298;13.686;2023-07-20T14:36:35;22.50;74.50
64705;DHT22;51131;52.298;13.686;2023-07-20T14:39:01;22.00;74.10
64705;DHT22;51131;52.298;13.686;2023-07-20T14:41:28;22.00;74.10
64705;DHT22;51131;52.298;13.686;2023-07-20T14:43:54;22.00;73.60
64705;DHT22;51131;52.298;13.686;2023-07-20T14:46:23;22.00;74.10
64705;DHT22;51131;52.298;13.686;2023-07-20T14:48:50;22.00;74.20
64705;DHT22;51131;52.298;13.686;2023-07-20T14:51:18;22.00;74.30
64705;DHT22;51131;52.298;13.686;2023-07-20T14:53:45;22.00;74.30
64705;DHT22;51131;52.298;13.686;2023-07-20T14:56:12;22.00;74.30
64705;DHT22;51131;52.298;13.686;2023-07-20T14:58:38;22.00;74.40
64705;DHT22;51131;52.298;13.686;2023-07-20T15:01:05;22.00;74.30
64705;DHT22;51131;52.298;13.686;2023-07-20T15:03:32;22.10;74.30
64705;DHT22;51131;52.298;13.686;2023-07-20T15:05:58;22.00;74.10
64705;DHT22;51131;52.298;13.686;2023-07-20T15:08:25;22.00;74.20
64705;DHT22;51131;52.298;13.686;2023-07-20T15:10:52;22.00;74.20
64705;DHT22;51131;52.298;13.686;2023-07-20T15:13:19;21.90;73.80
64705;DHT22;51131;52.298;13.686;2023-07-20T15:15:45;22.00;74.20
64705;DHT22;51131;52.298;13.686;2023-07-20T15:18:12;21.90;74.10
64705;DHT22;51131;52.298;13.686;2023-07-20T15:20:39;21.90;74.30
64705;DHT22;51131;52.298;13.686;2023-07-20T15:23:05;21.90;74.50
64705;DHT22;51131;52.298;13.686;2023-07-20T15:25:32;22.00;74.70
64705;DHT22;51131;52.298;13.686;2023-07-20T15:27:59;22.00;74.30
64705;DHT22;51131;52.298;13.686;2023-07-20T15:30:27;21.90;74.40
64705;DHT22;51131;52.298;13.686;2023-07-20T15:32:56;22.10;75.30
64705;DHT22;51131;52.298;13.686;2023-07-20T15:35:26;21.90;74.50
64705;DHT22;51131;52.298;13.686;2023-07-20T15:37:52;22.00;74.70